Latest Weather Observations for Scotts Peak

IDT60801

Issued at 5:35 am EDT Saturday 1 November 2014 (issued every 30 minutes, with the page automatically refreshed every 10 minutes)

About weather observations | Map of weather stations | Latest weather observations for TAS | Other Formats
Station Details ID: 097083 Name: SCOTTS PEAK DAM Lat: -43.04 Lon: 146.27 Height: 408.0 m
Data from the previous 72 hours. | See also: Recent months at Scotts Peak
Date/Time
EDT
Temp
°C
App
Temp
°C
Dew
Point
Rel
Hum
%
Delta-T
°C
Wind Press
QNH
hPa
Press
MSL
hPa
Rain
since 9 am
mm
Dir
 
Spd
km/h
Gust
km/h
Spd
kts
Gust
kts
01/05:31am 9.2 0.3 9.1 99 0.1 NNW 46 72 25 39 - - 15.6
01/05:30am 9.1 0.7 9.0 99 0.1 NNW 43 57 23 31 - - 15.6
01/05:00am 9.0 1.0 8.9 99 0.1 NNW 41 63 22 34 - - 13.8
01/04:30am 8.9 -0.5 8.6 98 0.1 NNW 48 67 26 36 - - 13.6
01/04:05am 8.8 -0.3 8.4 97 0.2 NW 46 54 25 29 - - 13.0
01/04:00am 8.8 -5.2 8.4 97 0.2 NNW 72 78 39 42 - - 13.0
01/03:52am 9.0 -1.6 8.5 97 0.2 NNW 54 74 29 40 - - 13.0
01/03:49am 8.8 -1.8 8.4 97 0.2 NNW 54 61 29 33 - - 12.8
01/03:30am 8.9 -5.5 8.5 97 0.2 NNW 74 93 40 50 - - 12.2
01/03:21am 9.1 -6.4 8.6 97 0.2 NNW 80 100 43 54 - - 11.8
01/03:20am 9.2 -6.9 8.7 97 0.2 NNW 83 100 45 54 - - 11.8
01/03:19am 9.4 -2.8 8.9 97 0.3 NNW 63 96 34 52 - - 11.6
01/03:02am 9.8 0.2 9.5 98 0.2 NW 50 70 27 38 - - 10.8
01/03:00am 9.8 1.0 9.5 98 0.2 NW 46 61 25 33 - - 10.6
01/02:44am 9.8 1.3 9.3 97 0.3 NNW 44 63 24 34 - - 9.8
01/02:30am 9.9 0.6 9.3 96 0.3 NNW 48 63 26 34 - - 8.8
01/02:00am 10.1 0.1 9.3 95 0.4 NNW 52 72 28 39 - - 7.4
01/01:42am 10.3 1.2 8.6 89 0.9 NW 46 65 25 35 - - 6.8
01/01:30am 10.5 1.6 9.1 91 0.7 NW 46 57 25 31 - - 6.6
01/01:27am 10.5 0.8 9.1 91 0.7 NW 50 57 27 31 - - 6.6
01/01:18am 10.1 -3.5 8.5 90 0.8 NW 70 91 38 49 - - 6.6
01/01:17am 10.1 -4.7 8.4 89 0.8 NW 76 91 41 49 - - 6.6
01/01:10am 11.2 0.4 9.3 88 1.0 WNW 56 91 30 49 - - 6.4
01/01:05am 11.7 2.7 10.3 91 0.7 WNW 48 69 26 37 - - 6.0
01/01:00am 11.8 3.6 10.4 91 0.7 NW 44 52 24 28 - - 5.6
01/12:59am 11.9 3.4 10.5 91 0.7 NW 46 52 25 28 - - 5.6
01/12:30am 12.4 0.1 11.5 94 0.5 NNW 67 89 36 48 - - 5.4
01/12:00am 12.5 1.8 11.6 94 0.5 NNW 59 82 32 44 - - 5.0
 
Date/Time
EDT
Temp
°C
App
Temp
°C
Dew
Point
Rel
Hum
%
Delta-T
°C
Wind Press
QNH
hPa
Press
MSL
hPa
Rain
since 9 am
mm
Dir
 
Spd
km/h
Gust
km/h
Spd
kts
Gust
kts
31/11:36pm 12.4 3.4 11.6 95 0.4 NNW 50 69 27 37 - - 4.8
31/11:30pm 12.3 3.3 11.5 95 0.4 NNW 50 61 27 33 - - 4.8
31/11:00pm 12.2 3.9 11.4 95 0.4 NNW 46 70 25 38 - - 4.6
31/10:35pm 12.1 3.3 11.0 93 0.6 NNW 48 67 26 36 - - 4.4
31/10:30pm 12.1 2.5 10.8 92 0.7 NNW 52 67 28 36 - - 4.0
31/10:04pm 12.2 3.7 10.6 90 0.8 NNW 46 67 25 36 - - 3.6
31/10:00pm 12.4 3.5 10.6 89 1.0 NNW 48 56 26 30 - - 3.6
31/09:30pm 13.0 1.6 10.5 85 1.3 NNW 61 82 33 44 - - 3.2
31/09:00pm 13.6 2.9 9.6 77 2.1 NNW 56 74 30 40 - - 3.2
31/08:40pm 14.9 3.4 8.8 67 3.2 NNW 59 91 32 49 - - 3.2
31/08:30pm 14.5 4.1 9.1 70 2.8 NNW 54 72 29 39 - - 3.2
31/08:12pm 14.5 5.1 8.9 69 2.9 NW 48 74 26 40 - - 3.2
31/08:11pm 14.5 5.5 8.9 69 2.9 NW 46 52 25 28 - - 3.2
31/08:00pm 14.9 2.4 9.1 68 3.0 NW 65 96 35 52 - - 3.2
31/07:55pm 14.9 3.8 8.8 67 3.2 NNW 57 96 31 52 - - 3.2
31/07:45pm 15.2 6.0 8.0 62 3.7 NNW 46 65 25 35 - - 3.2
31/07:30pm 14.6 5.5 8.3 66 3.2 NNW 46 61 25 33 - - 3.2
31/07:00pm 13.8 5.5 9.3 74 2.3 NNW 43 52 23 28 - - 3.2
31/06:30pm 13.8 5.6 9.6 76 2.2 NNW 43 56 23 30 - - 3.2
31/06:00pm 13.6 4.2 10.0 79 1.9 NNW 50 63 27 34 - - 3.2
31/05:36pm 13.1 5.1 11.0 87 1.1 NNW 44 65 24 35 - - 3.2
31/05:30pm 13.0 6.0 11.4 90 0.9 NNW 39 56 21 30 - - 3.2
31/05:00pm 12.8 6.8 12.2 96 0.3 NNW 35 44 19 24 - - 3.2
31/04:30pm 12.9 7.1 12.6 98 0.2 NNW 35 48 19 26 - - 3.2
31/04:00pm 13.4 9.1 13.2 99 0.1 N 28 37 15 20 - - 3.0
31/03:35pm 12.9 8.4 12.7 99 0.1 N 28 46 15 25 - - 3.0
31/03:30pm 12.8 8.3 12.6 99 0.1 N 28 35 15 19 - - 3.0
31/03:00pm 12.0 5.5 11.8 99 0.1 N 37 44 20 24 - - 2.6
31/02:30pm 11.5 4.9 11.2 98 0.2 N 37 44 20 24 - - 2.2
31/02:00pm 11.6 4.5 11.0 96 0.3 N 39 52 21 28 - - 0.8
31/01:30pm 11.5 4.0 10.7 95 0.4 NNW 41 48 22 26 - - 0.6
31/01:00pm 11.0 3.7 10.1 94 0.5 NNW 39 46 21 25 - - 0.2
31/12:30pm 10.1 2.6 9.6 97 0.3 N 39 48 21 26 - - 0.2
31/12:00pm 9.6 2.0 9.1 97 0.3 N 39 46 21 25 - - 0.2
31/11:30am 9.4 3.9 9.1 98 0.2 N 28 39 15 21 - - 0.2
31/11:00am 9.1 3.5 8.6 97 0.2 N 28 35 15 19 - - 0.2
31/10:30am 9.1 3.1 8.6 97 0.2 NNW 30 44 16 24 - - 0.0
31/10:00am 8.8 1.7 8.2 96 0.3 NNW 35 44 19 24 - - 0.0
31/09:30am 8.6 4.0 8.0 96 0.3 NNW 22 35 12 19 - - 0.0
31/09:00am 8.3 2.0 7.5 95 0.4 NNW 30 41 16 22 - - 3.4
31/08:30am 8.5 -0.3 8.1 97 0.2 NNW 44 59 24 32 - - 3.4
31/08:20am 8.7 0.5 8.3 97 0.2 NNW 41 61 22 33 - - 3.4
31/08:00am 8.7 2.2 8.3 97 0.2 NNW 32 39 17 21 - - 3.2
31/07:37am 8.6 1.2 8.2 97 0.2 NNW 37 56 20 30 - - 3.2
31/07:30am 8.7 0.9 8.4 98 0.1 NNW 39 56 21 30 - - 3.2
31/07:00am 8.7 3.8 8.4 98 0.1 NNW 24 41 13 22 - - 3.2
31/06:30am 8.6 4.6 8.3 98 0.1 NNW 19 24 10 13 - - 3.2
31/06:00am 8.7 5.1 8.3 97 0.2 NNW 17 20 9 11 - - 3.2
31/05:30am 8.7 5.5 8.3 97 0.2 NNW 15 20 8 11 - - 3.0
31/05:00am 8.7 5.4 8.1 96 0.3 NW 15 20 8 11 - - 3.0
31/04:30am 8.8 6.0 8.4 97 0.2 NW 13 17 7 9 - - 3.0
31/04:00am 8.8 6.4 8.5 98 0.1 NNW 11 17 6 9 - - 3.0
31/03:30am 8.8 5.7 8.7 99 0.0 NNW 15 22 8 12 - - 3.0
31/03:00am 8.7 6.2 8.4 98 0.1 N 11 19 6 10 - - 2.6
31/02:30am 8.8 4.9 8.5 98 0.1 NW 19 32 10 17 - - 2.4
31/02:00am 8.9 4.0 8.5 97 0.2 WNW 24 35 13 19 - - 2.2
31/01:30am 8.8 6.0 8.7 99 0.0 NNW 13 17 7 9 - - 1.6
31/01:00am 8.8 4.7 8.7 99 0.0 NNW 20 32 11 17 - - 1.4
31/12:30am 8.7 5.2 8.6 99 0.0 NNW 17 20 9 11 - - 1.4
31/12:00am 8.6 5.4 8.3 98 0.1 NNW 15 19 8 10 - - 1.0
 
Date/Time
EDT
Temp
°C
App
Temp
°C
Dew
Point
Rel
Hum
%
Delta-T
°C
Wind Press
QNH
hPa
Press
MSL
hPa
Rain
since 9 am
mm
Dir
 
Spd
km/h
Gust
km/h
Spd
kts
Gust
kts
30/11:30pm 8.5 4.9 8.2 98 0.1 N 17 22 9 12 - - 1.0
30/11:00pm 8.3 4.2 8.0 98 0.1 N 19 22 10 12 - - 1.0
30/10:30pm 8.2 3.5 7.9 98 0.1 NNW 22 26 12 14 - - 1.0
30/10:00pm 8.0 3.6 7.6 97 0.2 NW 20 26 11 14 - - 0.8
30/09:30pm 8.0 1.7 7.2 95 0.4 WNW 30 39 16 21 - - 0.8
30/09:00pm 8.1 1.7 6.9 92 0.6 NW 30 37 16 20 - - 0.8
30/08:30pm 8.2 1.8 7.0 92 0.6 NW 30 39 16 21 - - 0.8
30/08:00pm 8.3 1.4 6.6 89 0.8 NW 32 41 17 22 - - 0.8
30/07:30pm 8.7 2.5 6.2 84 1.2 NW 28 37 15 20 - - 0.8
30/07:00pm 8.8 1.8 6.2 84 1.2 NW 32 46 17 25 - - 0.8
30/06:30pm 8.7 1.7 6.7 87 1.0 NW 33 43 18 23 - - 0.8
30/06:00pm 8.7 2.2 6.7 87 1.0 NNW 30 39 16 21 - - 0.8
30/05:30pm 9.3 2.3 6.7 84 1.2 NNW 33 44 18 24 - - 0.8
30/05:00pm 10.1 4.1 7.0 81 1.5 NW 28 37 15 20 - - 0.8
30/04:30pm 9.5 2.5 6.0 79 1.6 WNW 32 46 17 25 - - 0.8
30/04:20pm 9.4 2.6 6.8 84 1.2 WNW 32 50 17 27 - - 0.8
30/04:00pm 9.3 1.4 6.2 81 1.5 WNW 37 50 20 27 - - 0.8
30/03:30pm 9.1 1.8 7.1 87 1.0 NW 35 43 19 23 - - 0.8
30/03:00pm 9.6 3.8 7.9 89 0.8 NW 28 37 15 20 - - 0.8
30/02:47pm 9.3 1.9 6.7 84 1.2 NW 35 56 19 30 - - 0.8
30/02:30pm 9.1 1.8 7.1 87 1.0 WNW 35 46 19 25 - - 0.8
30/02:02pm 9.8 3.0 7.9 88 0.9 WNW 33 52 18 28 - - 0.8
30/02:00pm 9.8 2.6 7.6 86 1.1 WNW 35 52 19 28 - - 0.8
30/01:30pm 9.9 3.6 7.3 84 1.3 WNW 30 50 16 27 - - 0.6
30/01:02pm 9.7 1.8 7.8 88 0.9 WNW 39 57 21 31 - - 0.6
30/01:00pm 9.6 1.2 7.5 87 1.0 WNW 41 57 22 31 - - 0.6
30/12:44pm 9.4 1.7 7.3 87 1.0 WNW 37 57 20 31 - - 0.6
30/12:30pm 9.1 3.2 7.5 90 0.8 WNW 28 43 15 23 - - 0.6
30/12:00pm 8.5 2.6 7.3 92 0.6 WNW 28 35 15 19 - - 0.6
30/11:30am 8.1 3.6 7.0 93 0.5 W 20 30 11 16 - - 0.6
30/11:00am 7.4 3.8 6.7 95 0.3 SW 15 22 8 12 - - 0.6
30/10:30am 7.6 3.2 7.2 97 0.2 W 20 30 11 16 - - 0.6
30/10:00am 7.3 3.4 7.0 98 0.1 SW 17 24 9 13 - - 0.6
30/09:30am 7.7 3.9 7.4 98 0.1 WNW 17 24 9 13 - - 0.2
30/09:00am 7.1 3.9 6.7 97 0.2 SSW 13 19 7 10 - - 4.4
30/08:30am 7.5 2.6 6.9 96 0.3 WSW 22 32 12 17 - - 4.2
30/08:00am 8.5 1.9 7.7 95 0.4 WNW 32 41 17 22 - - 4.0
30/07:30am 8.3 1.5 7.7 96 0.3 WNW 33 50 18 27 - - 4.0
30/07:00am 8.2 0.3 7.9 98 0.1 NW 39 54 21 29 - - 3.6
30/06:30am 8.0 1.2 7.6 97 0.2 NW 33 44 18 24 - - 3.6
30/06:00am 7.8 0.5 7.4 97 0.2 WNW 35 44 19 24 - - 3.6
30/05:30am 7.8 -1.1 7.5 98 0.1 NW 44 56 24 30 - - 3.4
30/05:00am 7.9 1.1 7.6 98 0.1 NW 33 43 18 23 - - 3.2
30/04:30am 8.0 2.1 7.7 98 0.1 NW 28 35 15 19 - - 3.2
30/04:00am 8.1 2.3 7.8 98 0.1 WNW 28 41 15 22 - - 3.2
30/03:30am 8.1 0.9 7.7 97 0.2 NW 35 54 19 29 - - 3.0
30/03:29am 8.2 1.0 7.8 97 0.2 WNW 35 54 19 29 - - 3.0
30/03:00am 8.2 1.6 7.9 98 0.1 WNW 32 41 17 22 - - 3.0
30/02:34am 8.2 1.1 7.9 98 0.1 NW 35 54 19 29 - - 2.8
30/02:30am 8.2 1.4 7.9 98 0.1 NW 33 43 18 23 - - 2.8
30/02:00am 8.1 1.5 7.8 98 0.1 NW 32 43 17 23 - - 2.6
30/01:30am 7.9 1.2 7.5 97 0.2 NW 32 39 17 21 - - 2.4
30/01:18am 7.9 1.2 7.3 96 0.3 NW 32 50 17 27 - - 2.0
30/01:00am 7.9 2.3 7.0 94 0.4 NW 26 35 14 19 - - 2.0
30/12:30am 8.0 -3.0 6.9 93 0.5 NW 54 72 29 39 - - 2.0
30/12:00am 8.0 -0.4 7.2 95 0.4 WNW 41 59 22 32 - - 2.0
 
Date/Time
EDT
Temp
°C
App
Temp
°C
Dew
Point
Rel
Hum
%
Delta-T
°C
Wind Press
QNH
hPa
Press
MSL
hPa
Rain
since 9 am
mm
Dir
 
Spd
km/h
Gust
km/h
Spd
kts
Gust
kts
29/11:30pm 8.0 0.0 7.4 96 0.3 WNW 39 54 21 29 - - 1.8
29/11:00pm 8.4 0.4 7.6 95 0.4 WNW 39 59 21 32 - - 1.6
29/10:43pm 8.6 -0.2 7.4 92 0.6 WNW 43 61 23 33 - - 1.6
29/10:30pm 8.8 0.0 7.1 89 0.8 WNW 43 56 23 30 - - 1.6
29/10:00pm 8.5 -0.9 7.3 92 0.6 WNW 46 67 25 36 - - 1.6
29/09:30pm 8.3 -1.8 7.4 94 0.4 WNW 50 70 27 38 - - 1.6
29/09:05pm 8.3 -2.9 7.5 95 0.4 WNW 56 74 30 40 - - 1.6
29/09:00pm 8.3 1.5 7.7 96 0.3 WNW 33 59 18 32 - - 1.6
29/08:34pm 8.6 0.4 8.0 96 0.3 WNW 41 59 22 32 - - 1.4
29/08:30pm 8.6 -0.2 8.0 96 0.3 NW 44 59 24 32 - - 1.2
29/08:04pm 8.6 -1.4 7.8 95 0.4 WNW 50 69 27 37 - - 1.2
29/08:00pm 8.6 -2.2 7.7 94 0.4 WNW 54 69 29 37 - - 1.2
29/07:30pm 9.3 0.0 7.7 90 0.8 WNW 46 69 25 37 - - 0.8
29/07:16pm 9.4 3.2 8.0 91 0.7 NW 30 52 16 28 - - 0.8
29/07:00pm 9.5 2.7 7.6 88 0.9 NW 33 43 18 23 - - 0.8
29/06:48pm 9.4 2.6 7.5 88 0.9 NW 33 43 18 23 - - 0.8
29/06:30pm 9.4 -1.7 7.8 90 0.8 WNW 56 78 30 42 - - 0.8
29/06:24pm 9.5 0.0 8.3 92 0.6 WNW 48 72 26 39 - - 0.8
29/06:00pm 9.8 2.9 8.9 94 0.5 NW 35 54 19 29 - - 0.6
29/05:45pm 9.7 3.7 8.5 92 0.6 NW 30 50 16 27 - - 0.6
29/05:30pm 9.5 3.8 8.3 92 0.6 WNW 28 35 15 19 - - 0.6
29/05:02pm 9.3 -0.7 7.7 90 0.8 NW 50 70 27 38 - - 0.6
29/05:00pm 9.3 -0.4 7.7 90 0.8 NW 48 65 26 35 - - 0.6
29/04:58pm 9.3 0.6 7.7 90 0.8 NW 43 52 23 28 - - 0.6
29/04:35pm 9.2 -2.9 7.8 91 0.7 WNW 61 80 33 43 - - 0.6
29/04:33pm 9.2 -2.1 7.8 91 0.7 WNW 57 72 31 39 - - 0.6
29/04:30pm 9.4 -6.3 8.0 91 0.7 NW 80 104 43 56 - - 0.6
29/04:28pm 9.6 -2.0 8.2 91 0.7 WNW 59 89 32 48 - - 0.6
29/04:25pm 9.8 -1.2 8.6 92 0.6 WNW 56 67 30 36 - - 0.6
29/04:18pm 9.9 3.4 8.8 93 0.6 NW 33 54 18 29 - - 0.4
29/04:00pm 9.8 3.8 8.7 93 0.6 NW 30 37 16 20 - - 0.4
29/03:45pm 9.8 -0.4 8.4 91 0.7 WNW 52 70 28 38 - - 0.2
29/03:44pm 9.8 -1.2 8.4 91 0.7 NW 56 70 30 38 - - 0.2
29/03:40pm 10.1 3.5 8.4 89 0.8 W 33 54 18 29 - - 0.2
29/03:30pm 10.6 3.7 9.0 90 0.8 NW 35 46 19 25 - - 0.2
29/03:01pm 10.9 3.5 8.3 84 1.3 NW 37 56 20 30 - - 0.2
29/03:00pm 10.9 3.8 8.1 83 1.4 NW 35 52 19 28 - - 0.2
29/02:44pm 11.0 3.5 6.4 73 2.2 W 35 50 19 27 - - 0.2
29/02:30pm 12.0 0.5 7.3 73 2.3 WNW 57 83 31 45 - - 0.2
29/02:00pm 11.9 -0.9 6.2 68 2.7 WNW 63 87 34 47 - - 0.2
29/01:34pm 10.7 -0.7 7.4 80 1.6 WNW 57 76 31 41 - - 0.2
29/01:30pm 11.1 -0.9 8.1 82 1.5 WNW 61 78 33 42 - - 0.2
29/01:03pm 10.7 -3.9 7.6 81 1.5 WNW 74 95 40 51 - - 0.2
29/01:00pm 10.5 -5.3 7.2 80 1.6 WNW 80 91 43 49 - - 0.2
29/12:30pm 10.4 -1.4 7.6 83 1.4 WNW 59 80 32 43 - - 0.2
29/12:17pm 10.8 -2.7 6.7 76 2.0 WNW 67 85 36 46 - - 0.2
29/12:16pm 10.9 -2.1 7.0 77 1.9 WNW 65 76 35 41 - - 0.2
29/12:01pm 10.1 2.2 7.9 86 1.1 WNW 39 57 21 31 - - 0.2
29/12:00pm 10.2 2.0 8.1 87 1.0 WNW 41 57 22 31 - - 0.2
29/11:46am 10.4 3.1 7.3 81 1.5 NW 35 54 19 29 - - 0.2
29/11:30am 10.3 1.7 6.6 78 1.8 NW 41 52 22 28 - - 0.2
29/11:00am 9.3 -1.7 6.9 85 1.2 WNW 54 69 29 37 - - 0.2
29/10:30am 8.9 -1.4 6.3 84 1.2 WNW 50 72 27 39 - - 0.2
29/10:06am 8.4 -2.4 7.5 94 0.4 WNW 54 72 29 39 - - 0.2
29/10:00am 8.0 -3.5 7.1 94 0.4 WNW 57 74 31 40 - - 0.2
29/09:30am 7.8 -1.8 6.4 91 0.7 WNW 46 65 25 35 - - 0.0
29/09:28am 7.7 -1.9 6.3 91 0.7 NW 46 65 25 35 - - 0.0
29/09:00am 7.2 -3.1 6.3 94 0.4 NW 50 67 27 36 - - 1.4
29/08:30am 7.2 -3.4 5.3 88 0.9 NW 50 72 27 39 - - 1.4
29/08:23am 7.1 -2.7 5.1 87 0.9 WNW 46 72 25 39 - - 1.4
29/08:00am 7.0 -2.0 4.7 85 1.0 NW 41 56 22 30 - - 1.4
29/07:30am 6.8 -4.4 3.8 81 1.3 NW 52 67 28 36 - - 1.4
29/07:00am 6.5 -3.5 4.3 86 1.0 NW 46 57 25 31 - - 1.4
29/06:30am 6.3 -3.2 4.1 86 1.0 NW 43 54 23 29 - - 1.4
29/06:00am 6.0 -3.2 3.5 84 1.1 WNW 41 48 22 26 - - 1.4

Other Formats:

Comma delimited format used in spreadsheet applications
http://www.bom.gov.au/fwo/IDT60801/IDT60801.95958.axf

JavaScript Object Notation format (JSON) in row-major order
http://www.bom.gov.au/fwo/IDT60801/IDT60801.95958.json